createdAt,value
2022-08-30T00:00:29.333Z,33.69
2022-08-30T00:01:05.576Z,33.55
2022-08-30T00:01:30.257Z,33.80
2022-08-30T00:01:51.952Z,34.11
2022-08-30T00:02:13.757Z,33.98
2022-08-30T00:02:35.945Z,33.33
2022-08-30T00:02:58.106Z,33.71
2022-08-30T00:03:22.145Z,34.00
2022-08-30T00:03:46.285Z,33.37
2022-08-30T00:04:08.254Z,33.82
2022-08-30T00:04:29.931Z,33.53
2022-08-30T00:04:54.084Z,33.35
2022-08-30T00:05:16.931Z,33.46
2022-08-30T00:05:39.603Z,33.71
2022-08-30T00:06:01.718Z,33.90
2022-08-30T00:06:27.006Z,33.75
2022-08-30T00:06:48.828Z,33.77
2022-08-30T00:07:10.526Z,33.39
2022-08-30T00:07:32.607Z,33.77
2022-08-30T00:07:55.375Z,33.58
2022-08-30T00:08:17.194Z,34.06
2022-08-30T00:08:40.912Z,33.67
2022-08-30T00:09:03.574Z,33.97
2022-08-30T00:09:25.245Z,33.99
2022-08-30T00:09:46.913Z,34.13
2022-08-30T00:10:10.484Z,33.88
2022-08-30T00:10:32.151Z,34.03
2022-08-30T00:10:56.853Z,34.24
2022-08-30T00:11:21.615Z,34.04
2022-08-30T00:11:43.427Z,33.91
2022-08-30T00:12:05.353Z,33.83
2022-08-30T00:12:28.414Z,34.10
2022-08-30T00:12:50.112Z,34.17
2022-08-30T00:13:13.316Z,34.07
2022-08-30T00:13:35.931Z,34.33
2022-08-30T00:13:58.164Z,33.86
2022-08-30T00:14:20.377Z,33.91
2022-08-30T00:14:41.979Z,33.69
2022-08-30T00:15:07.063Z,34.24
2022-08-30T00:15:31.013Z,34.03
2022-08-30T00:15:53.300Z,34.13
2022-08-30T00:16:15.626Z,34.13
2022-08-30T00:16:38.447Z,34.40
2022-08-30T00:17:00.175Z,34.62
2022-08-30T00:17:21.864Z,33.84
2022-08-30T00:17:44.112Z,33.90
2022-08-30T00:18:06.888Z,33.58
2022-08-30T00:18:28.650Z,34.04
2022-08-30T00:18:51.259Z,33.58
2022-08-30T00:19:13.806Z,33.70
2022-08-30T00:19:36.445Z,34.12
2022-08-30T00:19:58.209Z,34.29
2022-08-30T00:20:22.293Z,34.18
2022-08-30T00:20:45.688Z,34.20
2022-08-30T00:21:08.798Z,34.10
2022-08-30T00:21:32.721Z,34.18
2022-08-30T00:21:54.370Z,33.86
2022-08-30T00:22:16.091Z,34.11
2022-08-30T00:22:39.485Z,34.01
2022-08-30T00:23:01.843Z,33.98
2022-08-30T00:23:23.555Z,34.32
2022-08-30T00:23:45.564Z,34.42
2022-08-30T00:24:09.038Z,33.59
2022-08-30T00:24:30.756Z,33.81
2022-08-30T00:24:52.401Z,33.79
2022-08-30T00:25:15.584Z,34.21
2022-08-30T00:25:37.504Z,33.76
2022-08-30T00:26:00.190Z,33.68
2022-08-30T00:26:22.148Z,33.83
2022-08-30T00:26:43.866Z,33.86
2022-08-30T00:27:05.593Z,34.27
2022-08-30T00:27:27.410Z,34.30
2022-08-30T00:27:50.098Z,33.79
2022-08-30T00:28:12.442Z,34.32
2022-08-30T00:28:36.179Z,34.01
2022-08-30T00:28:58.753Z,33.69
2022-08-30T00:29:21.497Z,34.40
2022-08-30T00:29:43.190Z,34.63
2022-08-30T00:30:07.015Z,34.40
2022-08-30T00:30:28.724Z,33.94
2022-08-30T00:30:51.540Z,34.22
2022-08-30T00:31:15.137Z,34.18
2022-08-30T00:31:37.286Z,34.30
2022-08-30T00:31:58.934Z,34.47
2022-08-30T00:32:21.979Z,34.44
2022-08-30T00:32:44.044Z,34.46
2022-08-30T00:33:06.057Z,34.54
2022-08-30T00:33:28.713Z,34.65
2022-08-30T00:33:51.452Z,34.78
2022-08-30T00:34:13.219Z,34.88
2022-08-30T00:34:34.997Z,34.86
2022-08-30T00:34:56.671Z,34.91
2022-08-30T00:35:20.505Z,34.88
2022-08-30T00:35:44.091Z,34.49
2022-08-30T00:36:06.084Z,34.78
2022-08-30T00:36:28.127Z,34.62
2022-08-30T00:36:51.125Z,34.74
2022-08-30T00:37:13.824Z,34.92
2022-08-30T00:37:35.652Z,34.38
2022-08-30T00:37:57.985Z,34.50
2022-08-30T00:38:19.732Z,34.55
2022-08-30T00:38:42.399Z,34.87
2022-08-30T00:39:04.419Z,34.69
2022-08-30T00:39:26.856Z,34.92
2022-08-30T00:39:48.873Z,34.94
2022-08-30T00:40:12.264Z,34.83
2022-08-30T00:40:34.634Z,34.65
2022-08-30T00:40:56.423Z,35.17
2022-08-30T00:41:19.082Z,34.74
2022-08-30T00:41:40.800Z,34.87
2022-08-30T00:42:02.456Z,34.49
2022-08-30T00:42:24.417Z,34.38
2022-08-30T00:42:50.628Z,34.79
2022-08-30T00:43:18.065Z,34.84
2022-08-30T00:43:41.114Z,34.63
2022-08-30T00:44:03.444Z,34.76
2022-08-30T00:44:26.091Z,35.10
2022-08-30T00:44:48.337Z,35.11
2022-08-30T00:45:12.692Z,34.58
2022-08-30T00:45:36.951Z,34.55
2022-08-30T00:46:39.609Z,34.98
2022-08-30T00:47:01.658Z,35.06
2022-08-30T00:47:23.306Z,34.92
2022-08-30T00:47:45.488Z,35.15
2022-08-30T00:48:09.207Z,34.88
2022-08-30T00:48:31.257Z,34.60
2022-08-30T00:48:53.474Z,34.80
2022-08-30T00:49:15.367Z,34.90
2022-08-30T00:49:42.612Z,35.09
2022-08-30T00:50:08.337Z,35.34
2022-08-30T00:50:35.551Z,35.11
2022-08-30T00:51:00.964Z,35.54
2022-08-30T00:51:25.718Z,35.25
2022-08-30T00:51:48.085Z,35.11
2022-08-30T00:52:12.521Z,35.16
2022-08-30T00:52:35.403Z,34.95
2022-08-30T00:53:02.076Z,35.08
2022-08-30T00:53:27.582Z,34.98
2022-08-30T00:53:54.767Z,34.98
2022-08-30T00:54:18.409Z,35.00
2022-08-30T00:54:44.547Z,35.35
2022-08-30T00:55:06.939Z,34.99
2022-08-30T00:55:29.745Z,35.26
2022-08-30T00:55:52.485Z,35.07
2022-08-30T00:56:15.404Z,35.32
2022-08-30T00:56:37.216Z,34.94
2022-08-30T00:56:59.380Z,35.17
2022-08-30T00:57:21.271Z,35.36
2022-08-30T00:57:45.461Z,35.09
2022-08-30T00:58:10.924Z,35.25
2022-08-30T00:58:37.079Z,35.15
2022-08-30T00:59:02.779Z,35.08
2022-08-30T00:59:26.223Z,34.80
2022-08-30T00:59:49.689Z,34.97
2022-08-30T01:00:14.187Z,35.21
2022-08-30T01:00:36.375Z,35.51
2022-08-30T01:01:01.319Z,34.94
2022-08-30T01:01:23.673Z,34.96
2022-08-30T01:01:46.118Z,34.92
2022-08-30T01:02:07.954Z,35.11
2022-08-30T01:02:33.393Z,35.02
2022-08-30T01:02:55.981Z,35.27
2022-08-30T01:03:17.871Z,34.62
2022-08-30T01:03:41.207Z,35.13
2022-08-30T01:04:06.798Z,35.07
2022-08-30T01:04:29.429Z,35.16
2022-08-30T01:04:51.791Z,35.01
2022-08-30T01:05:16.084Z,34.81
2022-08-30T01:05:40.000Z,34.69
2022-08-30T01:06:03.562Z,35.04
2022-08-30T01:06:26.079Z,35.04
2022-08-30T01:06:54.605Z,34.95
2022-08-30T01:07:18.699Z,35.27
2022-08-30T01:07:41.620Z,35.46
2022-08-30T01:08:03.578Z,35.50
2022-08-30T01:08:25.631Z,35.42
2022-08-30T01:08:49.127Z,35.18
2022-08-30T01:09:13.907Z,35.18
2022-08-30T01:09:36.344Z,35.05
2022-08-30T01:09:58.111Z,35.44
2022-08-30T01:10:21.395Z,35.40
2022-08-30T01:10:43.977Z,35.58
2022-08-30T01:11:06.607Z,35.19
2022-08-30T01:11:29.188Z,35.23
2022-08-30T01:11:51.018Z,35.41
2022-08-30T01:12:14.152Z,35.31
2022-08-30T01:12:40.088Z,34.99
2022-08-30T01:13:02.059Z,35.12
2022-08-30T01:13:25.408Z,35.34
2022-08-30T01:13:49.507Z,35.39
2022-08-30T01:14:12.530Z,35.29
2022-08-30T01:14:34.323Z,35.41
2022-08-30T01:14:57.368Z,35.03
2022-08-30T01:15:19.894Z,35.05
2022-08-30T01:15:44.074Z,35.04
2022-08-30T01:16:08.060Z,35.29
2022-08-30T01:16:32.289Z,35.59
2022-08-30T01:16:57.587Z,35.50
2022-08-30T01:17:21.975Z,35.30
2022-08-30T01:17:47.651Z,35.70
2022-08-30T01:18:11.456Z,35.35
2022-08-30T01:18:35.683Z,35.88
2022-08-30T01:18:59.135Z,36.24
2022-08-30T01:19:32.805Z,35.50
2022-08-30T01:19:57.504Z,35.96
2022-08-30T01:20:26.586Z,35.64
2022-08-30T01:20:54.238Z,35.48
2022-08-30T01:21:22.430Z,35.49
2022-08-30T01:21:48.410Z,35.22
2022-08-30T01:22:23.129Z,35.26
2022-08-30T01:22:57.833Z,35.10
2022-08-30T01:23:21.864Z,35.76
2022-08-30T01:23:46.453Z,35.38
2022-08-30T01:24:10.543Z,35.46
2022-08-30T01:24:33.278Z,36.10
2022-08-30T01:24:57.975Z,35.87
2022-08-30T01:25:22.348Z,35.76
2022-08-30T01:25:48.501Z,35.82
2022-08-30T01:26:11.535Z,35.79
2022-08-30T01:26:35.902Z,35.55
2022-08-30T01:26:57.829Z,35.63
2022-08-30T01:27:20.567Z,35.00
2022-08-30T01:27:53.473Z,35.53
2022-08-30T01:28:20.036Z,35.39
2022-08-30T01:28:42.977Z,35.56
2022-08-30T01:29:09.411Z,35.39
2022-08-30T01:29:31.286Z,35.70
2022-08-30T01:29:53.385Z,35.25
2022-08-30T01:30:15.012Z,35.58
2022-08-30T01:30:40.138Z,35.37
2022-08-30T01:31:02.167Z,35.53
2022-08-30T01:31:24.064Z,35.52
2022-08-30T01:31:46.336Z,35.81
2022-08-30T01:32:19.704Z,35.87
2022-08-30T01:32:44.924Z,35.47
2022-08-30T01:33:07.855Z,35.53
2022-08-30T01:33:30.587Z,35.87
2022-08-30T01:33:52.286Z,35.85
2022-08-30T01:34:13.959Z,35.51
2022-08-30T01:34:35.608Z,35.75
2022-08-30T01:34:59.023Z,35.96
2022-08-30T01:35:20.659Z,35.49
2022-08-30T01:35:47.619Z,35.74
2022-08-30T01:36:12.284Z,35.49
2022-08-30T01:36:35.317Z,35.51
2022-08-30T01:36:57.908Z,35.42
2022-08-30T01:37:23.661Z,35.33
2022-08-30T01:37:46.317Z,35.45
2022-08-30T01:38:10.044Z,35.12
2022-08-30T01:38:37.682Z,35.69
2022-08-30T01:38:59.384Z,35.38
2022-08-30T01:39:21.510Z,35.35
2022-08-30T01:39:45.658Z,35.68
2022-08-30T01:40:09.315Z,35.66
2022-08-30T01:40:32.021Z,35.59
2022-08-30T01:40:57.574Z,35.20
2022-08-30T01:41:22.569Z,35.39
2022-08-30T01:41:44.335Z,35.11
2022-08-30T01:42:06.338Z,35.33
2022-08-30T01:42:29.369Z,35.71
2022-08-30T01:42:51.329Z,35.24
2022-08-30T01:43:14.794Z,35.29
2022-08-30T01:43:36.755Z,35.67
2022-08-30T01:44:02.878Z,35.78
2022-08-30T01:44:24.518Z,35.74
2022-08-30T01:44:47.108Z,35.70
2022-08-30T01:45:09.866Z,35.58
2022-08-30T01:45:31.520Z,35.26
2022-08-30T01:45:53.254Z,35.23
2022-08-30T01:46:18.255Z,35.36
2022-08-30T01:46:42.660Z,35.75
2022-08-30T01:47:04.606Z,35.60
2022-08-30T01:47:27.320Z,35.56
2022-08-30T01:47:50.572Z,35.34
2022-08-30T01:48:13.721Z,35.58
2022-08-30T01:48:35.450Z,35.41
2022-08-30T01:48:58.409Z,36.12
2022-08-30T01:49:26.030Z,35.83
2022-08-30T01:49:51.343Z,35.31
2022-08-30T01:50:13.236Z,35.86
2022-08-30T01:50:35.334Z,35.69
2022-08-30T01:50:59.105Z,35.55
2022-08-30T01:51:24.770Z,35.70
2022-08-30T01:51:46.792Z,35.78
2022-08-30T01:52:08.809Z,35.74
2022-08-30T01:52:30.488Z,35.22
2022-08-30T01:52:53.183Z,35.80
2022-08-30T01:53:16.324Z,35.53
2022-08-30T01:53:38.511Z,35.47
2022-08-30T01:54:00.777Z,35.50
2022-08-30T01:54:23.469Z,35.88
2022-08-30T01:54:54.810Z,35.58
2022-08-30T01:55:16.514Z,35.67
2022-08-30T01:55:39.012Z,35.56
2022-08-30T01:56:01.637Z,35.26
2022-08-30T01:56:24.164Z,35.56
2022-08-30T01:56:45.845Z,35.91
2022-08-30T01:57:08.469Z,35.37
2022-08-30T01:57:30.352Z,35.42
2022-08-30T01:57:52.979Z,35.01
2022-08-30T01:58:14.693Z,35.29
2022-08-30T01:58:38.039Z,35.04
2022-08-30T01:59:02.813Z,35.01
2022-08-30T01:59:26.276Z,35.03
2022-08-30T01:59:50.133Z,35.14
2022-08-30T02:00:12.699Z,34.96
2022-08-30T02:00:35.324Z,35.23
2022-08-30T02:00:57.664Z,34.81
2022-08-30T02:01:24.391Z,34.83
2022-08-30T02:01:46.419Z,35.06
2022-08-30T02:02:09.468Z,35.25
2022-08-30T02:02:31.265Z,34.92
2022-08-30T02:02:53.021Z,35.09
2022-08-30T02:03:14.725Z,35.31
2022-08-30T02:03:37.257Z,35.21
2022-08-30T02:04:00.035Z,34.86
2022-08-30T02:04:21.806Z,35.19
2022-08-30T02:04:44.165Z,35.37
2022-08-30T02:05:06.901Z,35.18
2022-08-30T02:05:29.880Z,35.55
2022-08-30T02:05:51.806Z,35.28
2022-08-30T02:06:15.992Z,35.59
2022-08-30T02:06:38.580Z,35.69
2022-08-30T02:07:00.390Z,35.12
2022-08-30T02:07:23.947Z,35.49
2022-08-30T02:07:45.588Z,35.66
2022-08-30T02:08:07.601Z,35.53
2022-08-30T02:08:30.631Z,35.51
2022-08-30T02:08:57.139Z,35.48
2022-08-30T02:09:19.076Z,35.67
2022-08-30T02:09:40.889Z,35.00
2022-08-30T02:10:02.632Z,35.14
2022-08-30T02:10:25.910Z,35.11
2022-08-30T02:10:47.713Z,34.83
2022-08-30T02:11:10.998Z,35.07
2022-08-30T02:11:32.780Z,35.14
2022-08-30T02:11:55.462Z,35.22
2022-08-30T02:12:17.949Z,35.33
2022-08-30T02:12:39.547Z,35.17
2022-08-30T02:13:03.029Z,35.69
2022-08-30T02:13:24.940Z,35.37
2022-08-30T02:13:46.857Z,35.68
2022-08-30T02:14:08.506Z,35.37
2022-08-30T02:14:31.612Z,35.05
2022-08-30T02:14:54.234Z,35.58
2022-08-30T02:15:16.322Z,35.36
2022-08-30T02:15:41.696Z,35.39
2022-08-30T02:16:03.680Z,35.72
2022-08-30T02:16:27.508Z,35.45
2022-08-30T02:16:49.311Z,35.57
2022-08-30T02:17:14.119Z,35.90
2022-08-30T02:17:36.032Z,35.60
2022-08-30T02:17:58.627Z,35.55
2022-08-30T02:18:23.746Z,36.04
2022-08-30T02:18:45.791Z,35.79
2022-08-30T02:19:07.774Z,35.68
2022-08-30T02:19:30.759Z,35.78
2022-08-30T02:19:52.537Z,35.83
2022-08-30T02:20:14.220Z,36.31
2022-08-30T02:20:38.303Z,35.89
2022-08-30T02:21:00.936Z,35.88
2022-08-30T02:21:23.226Z,36.05
2022-08-30T02:21:44.920Z,35.62
2022-08-30T02:22:06.884Z,35.83
2022-08-30T02:22:29.640Z,36.09
2022-08-30T02:22:51.330Z,35.84
2022-08-30T02:23:13.185Z,36.16
2022-08-30T02:23:36.395Z,35.75
2022-08-30T02:23:59.224Z,35.84
2022-08-30T02:24:20.873Z,35.86
2022-08-30T02:24:42.553Z,36.05
2022-08-30T02:25:04.961Z,36.02
2022-08-30T02:25:28.109Z,35.70
2022-08-30T02:25:49.796Z,35.73
2022-08-30T02:26:12.768Z,35.26
2022-08-30T02:26:36.547Z,35.24
2022-08-30T02:26:59.324Z,35.11
2022-08-30T02:27:21.053Z,35.14
2022-08-30T02:27:42.730Z,34.92
2022-08-30T02:28:05.255Z,34.92
2022-08-30T02:28:29.087Z,34.99
2022-08-30T02:28:52.127Z,34.65
2022-08-30T02:29:13.801Z,34.54
2022-08-30T02:29:35.625Z,34.89
2022-08-30T02:29:57.344Z,34.59
2022-08-30T02:30:20.185Z,34.63
2022-08-30T02:30:42.647Z,34.78
2022-08-30T02:31:04.527Z,34.72
2022-08-30T02:31:26.680Z,34.73
2022-08-30T02:31:49.872Z,34.93
2022-08-30T02:32:11.572Z,34.61
2022-08-30T02:32:33.289Z,34.97
2022-08-30T02:32:55.887Z,35.05
2022-08-30T02:33:17.774Z,35.05
2022-08-30T02:33:40.495Z,34.69
2022-08-30T02:34:02.304Z,34.67
2022-08-30T02:34:24.014Z,34.93
2022-08-30T02:34:47.213Z,34.72
2022-08-30T02:35:09.448Z,34.99
2022-08-30T02:35:31.455Z,34.88
2022-08-30T02:35:53.132Z,35.46
2022-08-30T02:36:16.000Z,34.91
2022-08-30T02:36:40.674Z,35.15
2022-08-30T02:37:02.465Z,35.55
2022-08-30T02:37:24.101Z,35.55
2022-08-30T02:37:46.790Z,35.31
2022-08-30T02:38:09.763Z,35.46
2022-08-30T02:38:31.401Z,35.12
2022-08-30T02:38:54.413Z,35.39
2022-08-30T02:39:17.403Z,34.52
2022-08-30T02:39:39.087Z,34.77
2022-08-30T02:40:00.803Z,34.86
2022-08-30T02:40:22.804Z,34.53
2022-08-30T02:40:45.622Z,34.86
2022-08-30T02:41:07.660Z,35.25
2022-08-30T02:41:29.352Z,35.36
2022-08-30T02:41:51.029Z,35.21
2022-08-30T02:42:12.866Z,34.91
2022-08-30T02:42:36.393Z,34.89
2022-08-30T02:42:58.463Z,34.80
2022-08-30T02:43:20.258Z,34.64
2022-08-30T02:43:42.064Z,34.96
2022-08-30T02:44:03.992Z,34.52
2022-08-30T02:44:26.649Z,34.67
2022-08-30T02:44:48.317Z,35.06
2022-08-30T02:45:10.745Z,34.71
2022-08-30T02:45:32.425Z,35.03
2022-08-30T02:45:54.424Z,35.33
2022-08-30T02:46:17.917Z,35.30
2022-08-30T02:46:39.887Z,35.42
2022-08-30T02:47:01.645Z,35.21
2022-08-30T02:47:23.320Z,35.36
2022-08-30T02:47:47.109Z,35.43
2022-08-30T02:48:09.696Z,35.40
2022-08-30T02:48:31.354Z,35.53
2022-08-30T02:48:53.101Z,35.84
2022-08-30T02:49:57.432Z,35.92
2022-08-30T02:50:20.036Z,35.43
2022-08-30T02:50:43.003Z,35.96
2022-08-30T02:51:06.591Z,35.69
2022-08-30T02:51:31.171Z,35.59
2022-08-30T02:51:52.974Z,35.54
2022-08-30T02:52:15.687Z,35.49
2022-08-30T02:52:37.866Z,35.21
2022-08-30T02:52:59.515Z,35.20
2022-08-30T02:53:22.439Z,35.48
2022-08-30T02:53:45.688Z,35.31
2022-08-30T02:54:09.680Z,35.54
2022-08-30T02:54:33.157Z,35.04
2022-08-30T02:54:55.183Z,35.23
2022-08-30T02:55:17.640Z,35.08
2022-08-30T02:55:39.511Z,34.80
2022-08-30T02:56:02.232Z,34.82
2022-08-30T02:56:23.900Z,34.82
2022-08-30T02:56:45.824Z,35.06
2022-08-30T02:57:08.732Z,35.42
2022-08-30T02:57:43.570Z,34.62
2022-08-30T02:58:05.793Z,34.99
2022-08-30T02:58:27.471Z,34.58
2022-08-30T02:58:52.217Z,34.89
2022-08-30T02:59:15.055Z,35.02
2022-08-30T02:59:41.603Z,34.52
2022-08-30T03:00:06.052Z,34.79
2022-08-30T03:00:27.665Z,35.00
2022-08-30T03:00:50.412Z,34.62
2022-08-30T03:01:15.857Z,35.10
2022-08-30T03:01:39.090Z,34.69
2022-08-30T03:02:00.953Z,35.02
2022-08-30T03:02:23.735Z,34.60
2022-08-30T03:02:45.489Z,34.62
2022-08-30T03:03:07.626Z,34.63
2022-08-30T03:03:29.543Z,34.85
2022-08-30T03:03:51.421Z,34.88
2022-08-30T03:04:14.624Z,34.92
2022-08-30T03:04:36.592Z,34.73
2022-08-30T03:04:58.714Z,34.68
2022-08-30T03:05:20.536Z,34.80
2022-08-30T03:05:43.361Z,34.80
2022-08-30T03:06:05.340Z,34.84
2022-08-30T03:06:26.982Z,35.05
2022-08-30T03:06:48.599Z,35.77
2022-08-30T03:07:12.394Z,35.58
2022-08-30T03:07:34.312Z,35.36
2022-08-30T03:07:55.992Z,35.44
2022-08-30T03:08:17.707Z,35.64
2022-08-30T03:08:40.747Z,35.50
2022-08-30T03:09:03.865Z,35.52
2022-08-30T03:09:26.916Z,35.51
2022-08-30T03:09:48.508Z,35.44
2022-08-30T03:10:12.004Z,35.75
2022-08-30T03:10:36.361Z,35.57
2022-08-30T03:10:58.007Z,35.46
2022-08-30T03:11:22.323Z,35.72
2022-08-30T03:11:46.372Z,35.44
2022-08-30T03:12:09.220Z,35.25
2022-08-30T03:12:32.457Z,35.50
2022-08-30T03:12:57.750Z,35.66
2022-08-30T03:13:19.787Z,35.19
2022-08-30T03:13:41.882Z,35.53
2022-08-30T03:14:04.119Z,35.17
2022-08-30T03:14:28.092Z,35.51
2022-08-30T03:14:49.744Z,35.62
2022-08-30T03:15:13.089Z,35.58
2022-08-30T03:15:35.427Z,35.17
2022-08-30T03:15:57.578Z,35.70
2022-08-30T03:16:21.730Z,35.61
2022-08-30T03:16:43.509Z,35.83
2022-08-30T03:17:06.903Z,35.52
2022-08-30T03:17:34.894Z,35.64
2022-08-30T03:17:57.683Z,35.61
2022-08-30T03:18:20.154Z,36.18
2022-08-30T03:18:43.103Z,35.99
2022-08-30T03:19:04.886Z,35.68
2022-08-30T03:19:27.571Z,35.71
2022-08-30T03:19:49.297Z,35.77
2022-08-30T03:20:11.941Z,35.83
2022-08-30T03:20:35.009Z,35.88
2022-08-30T03:20:57.680Z,35.21
2022-08-30T03:21:19.338Z,35.31
2022-08-30T03:21:40.995Z,35.27
2022-08-30T03:22:03.451Z,34.92
2022-08-30T03:22:26.078Z,35.14
2022-08-30T03:22:47.808Z,35.18
2022-08-30T03:23:09.513Z,35.62
2022-08-30T03:23:31.432Z,35.71
2022-08-30T03:23:53.061Z,35.75
2022-08-30T03:24:15.728Z,35.21
2022-08-30T03:24:40.308Z,35.21
2022-08-30T03:25:02.265Z,35.45
2022-08-30T03:25:24.158Z,35.33
2022-08-30T03:25:45.796Z,35.46
2022-08-30T03:26:08.497Z,35.50
2022-08-30T03:26:30.201Z,35.86
2022-08-30T03:26:52.025Z,35.57
2022-08-30T03:27:13.802Z,35.97
2022-08-30T03:27:36.660Z,35.63
2022-08-30T03:27:58.278Z,35.56
2022-08-30T03:28:19.985Z,35.62
2022-08-30T03:28:42.346Z,35.25
2022-08-30T03:29:05.045Z,35.56
2022-08-30T03:29:26.764Z,35.88
2022-08-30T03:29:48.467Z,35.75
2022-08-30T03:30:12.050Z,35.83
2022-08-30T03:30:35.467Z,35.61
2022-08-30T03:30:57.244Z,35.94
2022-08-30T03:31:18.906Z,35.72
2022-08-30T03:31:52.445Z,35.63
2022-08-30T03:32:15.531Z,36.04
2022-08-30T03:32:37.319Z,35.75
2022-08-30T03:32:59.505Z,35.91
2022-08-30T03:33:22.597Z,35.61
2022-08-30T03:33:45.337Z,35.84
2022-08-30T03:34:07.022Z,35.59
2022-08-30T03:34:28.757Z,35.49
2022-08-30T03:34:50.609Z,35.72
2022-08-30T03:35:14.622Z,35.63
2022-08-30T03:35:36.538Z,35.42
2022-08-30T03:35:58.241Z,35.59
2022-08-30T03:36:21.310Z,35.58
2022-08-30T03:36:42.983Z,35.48
2022-08-30T03:37:04.692Z,36.30
2022-08-30T03:37:27.642Z,36.00
2022-08-30T03:37:56.210Z,36.08
2022-08-30T03:38:18.364Z,35.70
2022-08-30T03:38:40.204Z,35.93
2022-08-30T03:39:01.923Z,35.92
2022-08-30T03:39:25.575Z,35.85
2022-08-30T03:39:48.737Z,36.05
2022-08-30T03:40:12.521Z,36.13
2022-08-30T03:40:35.914Z,35.92
2022-08-30T03:40:58.644Z,35.99
2022-08-30T03:41:21.516Z,35.90
2022-08-30T03:41:43.435Z,36.30
2022-08-30T03:42:05.607Z,36.39
2022-08-30T03:42:27.292Z,35.98
2022-08-30T03:42:50.289Z,36.33
2022-08-30T03:43:12.024Z,36.18
2022-08-30T03:43:34.738Z,36.27
2022-08-30T03:44:00.041Z,35.84
2022-08-30T03:44:24.474Z,36.38
2022-08-30T03:44:47.306Z,36.10
2022-08-30T03:45:09.666Z,36.36
2022-08-30T03:45:31.378Z,36.03
2022-08-30T03:45:54.355Z,36.10
2022-08-30T03:46:16.420Z,36.39
2022-08-30T03:46:38.210Z,36.44
2022-08-30T03:46:59.946Z,36.31
2022-08-30T03:47:21.637Z,36.43
2022-08-30T03:47:45.012Z,36.26
2022-08-30T03:48:06.864Z,35.93
2022-08-30T03:48:28.946Z,36.30
2022-08-30T03:48:52.086Z,36.02
2022-08-30T03:49:14.957Z,36.33
2022-08-30T03:49:36.633Z,35.96
2022-08-30T03:49:58.335Z,36.12
2022-08-30T03:50:20.001Z,35.96
2022-08-30T03:50:42.679Z,36.08
2022-08-30T03:51:05.065Z,36.36
2022-08-30T03:51:27.831Z,36.52
2022-08-30T03:51:49.520Z,36.34
2022-08-30T03:52:12.171Z,36.05
2022-08-30T03:52:33.959Z,36.21
2022-08-30T03:52:55.799Z,35.77
2022-08-30T03:53:17.655Z,35.74
2022-08-30T03:53:40.440Z,35.76
2022-08-30T03:54:02.772Z,35.76
2022-08-30T03:54:24.909Z,35.83
2022-08-30T03:54:48.159Z,35.52
2022-08-30T03:55:10.787Z,35.42
2022-08-30T03:55:32.576Z,35.54
2022-08-30T03:55:54.894Z,35.47
2022-08-30T03:56:17.805Z,36.27
2022-08-30T03:56:41.047Z,36.46
2022-08-30T03:57:02.715Z,36.73
2022-08-30T03:57:24.723Z,36.65
2022-08-30T03:57:46.746Z,36.56
2022-08-30T03:58:09.665Z,36.57
2022-08-30T03:58:31.473Z,36.73
2022-08-30T03:58:53.309Z,36.81
2022-08-30T03:59:15.510Z,36.49
2022-08-30T03:59:37.185Z,36.84
2022-08-30T03:59:59.849Z,37.00
2022-08-30T04:00:21.801Z,37.06
2022-08-30T04:00:43.555Z,36.64
2022-08-30T04:01:05.258Z,36.50
2022-08-30T04:01:28.132Z,36.50
2022-08-30T04:01:50.002Z,36.89
2022-08-30T04:02:11.720Z,36.40
2022-08-30T04:02:34.517Z,37.19
2022-08-30T04:02:56.281Z,37.01
2022-08-30T04:03:18.483Z,37.21
2022-08-30T04:03:40.424Z,37.19
2022-08-30T04:04:03.609Z,36.79
2022-08-30T04:04:25.439Z,37.41
2022-08-30T04:04:47.190Z,37.18
2022-08-30T04:05:10.043Z,37.19
2022-08-30T04:05:32.799Z,36.66
2022-08-30T04:05:55.600Z,37.23
2022-08-30T04:06:17.216Z,37.09
2022-08-30T04:06:38.911Z,36.84
2022-08-30T04:07:00.680Z,37.68
2022-08-30T04:07:23.317Z,37.34
2022-08-30T04:07:45.817Z,37.61
2022-08-30T04:08:07.570Z,37.53
2022-08-30T04:08:29.367Z,37.27
2022-08-30T04:08:52.234Z,37.16
2022-08-30T04:09:13.925Z,36.71
2022-08-30T04:09:35.655Z,36.59
2022-08-30T04:10:00.765Z,36.53
2022-08-30T04:10:22.902Z,36.47
2022-08-30T04:10:44.553Z,37.09
2022-08-30T04:11:07.168Z,36.89
2022-08-30T04:11:29.895Z,36.78
2022-08-30T04:11:51.653Z,37.00
2022-08-30T04:12:13.620Z,37.03
2022-08-30T04:12:39.994Z,36.53
2022-08-30T04:13:01.687Z,36.76
2022-08-30T04:13:25.264Z,36.86
2022-08-30T04:13:49.372Z,36.86
2022-08-30T04:14:11.013Z,36.59
2022-08-30T04:14:33.950Z,36.67
2022-08-30T04:14:55.762Z,36.42
2022-08-30T04:15:19.172Z,36.53
2022-08-30T04:15:41.884Z,37.01
2022-08-30T04:16:04.107Z,36.59
2022-08-30T04:16:26.384Z,36.50
2022-08-30T04:16:48.137Z,36.44
2022-08-30T04:17:10.784Z,37.01
2022-08-30T04:17:32.560Z,36.99
2022-08-30T04:17:54.904Z,36.66
2022-08-30T04:18:16.638Z,37.02
2022-08-30T04:18:39.324Z,36.76
2022-08-30T04:19:01.078Z,36.98
2022-08-30T04:19:22.723Z,36.91
2022-08-30T04:19:44.405Z,37.43
2022-08-30T04:20:07.492Z,37.20
2022-08-30T04:20:30.272Z,37.32
2022-08-30T04:20:52.152Z,37.46
2022-08-30T04:21:14.308Z,37.02
2022-08-30T04:21:36.872Z,37.37
2022-08-30T04:22:05.956Z,37.21
2022-08-30T04:22:27.629Z,37.70
2022-08-30T04:22:49.932Z,37.74
2022-08-30T04:23:12.377Z,37.89
2022-08-30T04:23:35.161Z,37.86
2022-08-30T04:23:56.872Z,37.88
2022-08-30T04:24:18.792Z,37.48
2022-08-30T04:24:41.590Z,37.77
2022-08-30T04:25:06.428Z,37.40
2022-08-30T04:25:28.305Z,37.79
2022-08-30T04:25:50.013Z,37.44
2022-08-30T04:26:11.721Z,37.10
2022-08-30T04:26:35.169Z,37.14
2022-08-30T04:26:56.851Z,37.19
2022-08-30T04:27:20.387Z,38.02
2022-08-30T04:27:43.064Z,37.35
2022-08-30T04:28:06.307Z,37.21
2022-08-30T04:28:28.346Z,37.13
2022-08-30T04:28:50.215Z,36.90
2022-08-30T04:29:16.478Z,36.99
2022-08-30T04:29:38.097Z,36.88
2022-08-30T04:30:00.294Z,37.36
2022-08-30T04:30:23.009Z,37.41
2022-08-30T04:30:45.125Z,37.91
2022-08-30T04:31:12.127Z,38.32
2022-08-30T04:31:34.138Z,37.65
2022-08-30T04:31:56.951Z,37.93
2022-08-30T04:32:18.639Z,37.75
2022-08-30T04:32:40.301Z,37.93
2022-08-30T04:33:01.976Z,37.86
2022-08-30T04:33:24.653Z,37.56
2022-08-30T04:33:46.292Z,37.91
2022-08-30T04:34:09.631Z,37.59
2022-08-30T04:34:31.412Z,37.52
2022-08-30T04:34:57.354Z,37.49
2022-08-30T04:35:19.262Z,37.34
2022-08-30T04:35:41.696Z,37.62
2022-08-30T04:36:05.458Z,37.36
2022-08-30T04:36:28.176Z,37.12
2022-08-30T04:36:50.117Z,37.13
2022-08-30T04:37:12.157Z,37.56
2022-08-30T04:37:33.812Z,37.22
2022-08-30T04:37:56.423Z,37.91
2022-08-30T04:38:18.609Z,38.24
2022-08-30T04:38:44.190Z,37.88
2022-08-30T04:39:06.867Z,37.85
2022-08-30T04:39:29.495Z,38.11
2022-08-30T04:39:51.288Z,37.90
2022-08-30T04:40:14.614Z,38.15
2022-08-30T04:40:37.038Z,37.50
2022-08-30T04:41:00.229Z,37.90
2022-08-30T04:41:24.356Z,37.02
2022-08-30T04:41:46.284Z,37.00
2022-08-30T04:42:08.465Z,37.41
2022-08-30T04:42:33.820Z,37.80
2022-08-30T04:42:56.181Z,37.33
2022-08-30T04:43:18.080Z,37.68
2022-08-30T04:43:40.169Z,37.85
2022-08-30T04:44:03.413Z,38.19
2022-08-30T04:44:27.357Z,37.75
2022-08-30T04:44:49.332Z,38.03
2022-08-30T04:45:14.736Z,37.22
2022-08-30T04:45:38.181Z,37.39
2022-08-30T04:45:59.964Z,37.32
2022-08-30T04:46:21.968Z,37.31
2022-08-30T04:46:44.943Z,37.99
2022-08-30T04:47:08.402Z,37.34
2022-08-30T04:47:30.068Z,37.83
2022-08-30T04:47:51.777Z,37.63
2022-08-30T04:48:14.788Z,37.93
2022-08-30T04:48:37.821Z,38.15
2022-08-30T04:48:59.505Z,38.33
2022-08-30T04:49:21.614Z,38.44
2022-08-30T04:49:44.251Z,37.90
2022-08-30T04:50:07.524Z,37.80
2022-08-30T04:50:29.273Z,38.24
2022-08-30T04:50:51.942Z,38.14
2022-08-30T04:51:16.595Z,37.96
2022-08-30T04:51:38.341Z,37.37
2022-08-30T04:52:00.053Z,37.73
2022-08-30T04:52:22.890Z,38.03
2022-08-30T04:52:44.928Z,37.70
2022-08-30T04:53:06.621Z,37.91
2022-08-30T04:53:28.533Z,37.72
2022-08-30T04:53:51.221Z,37.97
2022-08-30T04:54:12.859Z,38.29
2022-08-30T04:54:35.318Z,37.87
2022-08-30T04:54:58.280Z,37.78
2022-08-30T04:55:24.636Z,38.04
2022-08-30T04:55:46.304Z,38.35
2022-08-30T04:56:08.808Z,38.18
2022-08-30T04:56:30.505Z,38.37
2022-08-30T04:56:53.207Z,37.91